Time;durP1;ratioP1;P1;durP2;ratioP2;P2;SDS_P1;SDS_P2;PMS_P1;PMS_P2;Temp;Humidity;BMP_temperature;BMP_pressure;BME280_temperature;BME280_humidity;BME280_pressure;Samples;Min_cycle;Max_cycle;Signal;HPM_P1;HPM_P2
2023/01/11 00:01:14;;;;;;;10.97;6.00;;;;;;;9.89;100.00;100231.56;5034298;28;20072;-61
2023/01/11 00:03:40;;;;;;;12.85;6.50;;;;;;;10.25;100.00;100279.22;5034434;28;20061;-61
2023/01/11 00:06:07;;;;;;;15.07;6.95;;;;;;;10.28;100.00;100293.09;5034563;28;20033;-62
2023/01/11 00:08:32;;;;;;;14.18;6.43;;;;;;;9.97;100.00;100232.97;5034620;28;20096;-61
2023/01/11 00:11:01;;;;;;;12.02;7.00;;;;;;;10.01;100.00;100244.22;5034486;28;20405;-60
2023/01/11 00:13:26;;;;;;;18.77;6.90;;;;;;;9.93;100.00;100215.59;5034471;28;20469;-60
2023/01/11 00:15:52;;;;;;;10.38;6.07;;;;;;;10.35;100.00;100280.56;5034457;28;20045;-62
2023/01/11 00:18:17;;;;;;;12.02;6.38;;;;;;;10.26;100.00;100260.75;5034181;28;20132;-61
2023/01/11 00:20:42;;;;;;;14.95;6.07;;;;;;;10.37;100.00;100292.75;5033732;28;20387;-60
2023/01/11 00:23:08;;;;;;;11.55;5.95;;;;;;;10.38;100.00;100297.09;5034037;28;20041;-62
2023/01/11 00:25:34;;;;;;;10.60;5.88;;;;;;;10.39;100.00;100290.91;5016654;28;20038;-61
2023/01/11 00:27:59;;;;;;;12.43;7.15;;;;;;;10.34;100.00;100273.59;5034001;28;20124;-61
2023/01/11 00:30:25;;;;;;;10.57;5.63;;;;;;;10.34;100.00;100290.22;5016393;28;20073;-61
2023/01/11 00:32:55;;;;;;;7.82;6.50;;;;;;;10.38;100.00;100296.25;5034147;28;20060;-61
2023/01/11 00:35:20;;;;;;;8.05;5.45;;;;;;;10.05;100.00;100222.13;5016378;28;20030;-62
2023/01/11 00:37:45;;;;;;;13.32;5.88;;;;;;;9.99;100.00;100223.22;5033473;28;20037;-61
2023/01/11 00:40:11;;;;;;;12.82;6.90;;;;;;;10.43;100.00;100292.50;5034028;28;20041;-60
2023/01/11 00:48:05;;;;;;;10.13;5.80;;;;;;;10.09;100.00;100214.06;5033670;28;20049;-61
2023/01/11 00:50:33;;;;;;;8.10;6.10;;;;;;;10.47;100.00;100294.09;5033921;28;20029;-61
2023/01/11 00:52:59;;;;;;;12.02;6.13;;;;;;;10.46;100.00;100283.63;5033740;28;20030;-60
2023/01/11 00:55:25;;;;;;;6.93;5.53;;;;;;;9.95;100.00;100195.34;5033639;28;20511;-60
2023/01/11 00:57:50;;;;;;;8.05;5.72;;;;;;;10.50;100.00;100295.75;5015978;28;20456;-61
2023/01/11 01:00:16;;;;;;;8.77;5.53;;;;;;;10.08;100.00;100214.13;5033550;28;20464;-60
2023/01/11 01:02:42;;;;;;;9.65;6.18;;;;;;;10.43;100.00;100273.22;5033228;28;20081;-59
2023/01/11 01:05:07;;;;;;;6.35;5.72;;;;;;;10.44;100.00;100281.06;5033265;28;20639;-60
2023/01/11 01:07:33;;;;;;;7.18;5.80;;;;;;;10.50;100.00;100283.44;5032974;28;20033;-62
2023/01/11 01:09:58;;;;;;;8.48;6.03;;;;;;;10.52;100.00;100280.75;5032992;28;20112;-61
2023/01/11 01:15:08;;;;;;;8.10;6.18;;;;;;;10.55;100.00;100284.09;5033421;28;20130;-59
2023/01/11 01:17:33;;;;;;;8.85;6.65;;;;;;;10.50;100.00;100274.69;5033279;28;20068;-59
2023/01/11 01:19:58;;;;;;;7.20;6.50;;;;;;;10.09;100.00;100224.59;5032968;28;20044;-60
2023/01/11 01:22:23;;;;;;;7.97;6.28;;;;;;;10.43;100.00;100273.22;5014894;28;20443;-60
2023/01/11 01:24:49;;;;;;;8.40;6.93;;;;;;;10.33;100.00;100262.22;5032764;28;20400;-60
2023/01/11 01:27:16;;;;;;;10.93;7.13;;;;;;;10.50;100.00;100308.91;5015350;28;20427;-64
2023/01/11 01:29:42;;;;;;;14.00;7.15;;;;;;;10.50;100.00;100291.34;5032410;28;20049;-60
2023/01/11 01:32:07;;;;;;;13.45;8.27;;;;;;;10.54;100.00;100305.22;5032657;28;20033;-60
2023/01/11 01:34:36;;;;;;;10.38;8.15;;;;;;;10.55;100.00;100297.28;5015387;28;20041;-62
2023/01/11 01:37:05;;;;;;;11.18;7.93;;;;;;;10.58;100.00;100299.78;5032890;28;20392;-61
2023/01/11 01:39:30;;;;;;;10.52;7.32;;;;;;;10.53;100.00;100293.00;5015359;28;20117;-61
2023/01/11 01:41:56;;;;;;;8.68;6.72;;;;;;;10.63;100.00;100310.09;5033184;28;20420;-59
2023/01/11 01:44:46;;;;;;;9.77;6.88;;;;;;;10.61;100.00;100304.91;5032727;28;20041;-60
2023/01/11 01:47:11;;;;;;;9.93;6.10;;;;;;;10.15;100.00;100228.78;5032305;28;20029;-59
2023/01/11 01:49:37;;;;;;;10.60;5.95;;;;;;;10.68;100.00;100319.53;5032331;28;20547;-61
2023/01/11 01:52:02;;;;;;;8.18;5.70;;;;;;;10.31;100.00;100258.78;5032826;28;20481;-61
2023/01/11 01:54:33;;;;;;;8.88;5.35;;;;;;;10.36;100.00;100259.44;5014999;28;20477;-60
2023/01/11 01:57:03;;;;;;;7.65;5.45;;;;;;;10.71;100.00;100326.47;5032559;28;20038;-61
2023/01/11 01:59:30;;;;;;;6.95;4.90;;;;;;;10.61;100.00;100309.31;5032534;28;20034;-60
2023/01/11 02:01:55;;;;;;;8.38;5.07;;;;;;;10.35;100.00;100257.75;5032467;28;20087;-60
2023/01/11 02:04:24;;;;;;;8.50;3.97;;;;;;;10.82;100.00;100336.53;5014705;28;20396;-60
2023/01/11 02:06:52;;;;;;;4.82;3.65;;;;;;;10.48;100.00;100285.28;5014974;28;20037;-60
2023/01/11 02:09:47;;;;;;;6.72;3.20;;;;;;;10.82;100.00;100334.78;5014909;28;20037;-61
2023/01/11 02:12:13;;;;;;;5.32;3.83;;;;;;;10.39;100.00;100255.88;5032445;28;20033;-60
2023/01/11 02:14:40;;;;;;;10.10;3.30;;;;;;;10.83;100.00;100320.66;4998016;28;20565;-62
2023/01/11 02:17:06;;;;;;;6.22;3.00;;;;;;;10.73;100.00;100320.22;5014257;28;20037;-62
2023/01/11 02:19:42;;;;;;;7.78;2.55;;;;;;;10.86;100.00;100338.97;5032353;28;20033;-59
2023/01/11 02:22:38;;;;;;;7.13;2.50;;;;;;;10.80;100.00;100319.97;5014653;28;20041;-64
2023/01/11 02:25:42;;;;;;;14.15;2.78;;;;;;;10.92;100.00;100338.72;5031924;28;20037;-60
2023/01/11 02:28:19;;;;;;;8.20;2.22;;;;;;;10.97;100.00;100330.66;5031577;28;20036;-61
2023/01/11 02:30:50;;;;;;;9.43;2.42;;;;;;;10.99;100.00;100327.03;4997767;28;20400;-61
2023/01/11 02:33:23;;;;;;;;;;;;;;;11.00;100.00;100323.47;5032249;28;20033;-61
2023/01/11 02:36:04;;;;;;;8.88;2.30;;;;;;;10.98;100.00;100333.19;5013997;28;20287;-62
2023/01/11 02:38:32;;;;;;;8.75;2.65;;;;;;;11.02;100.00;100341.84;5014364;28;20040;-61
2023/01/11 02:40:57;;;;;;;5.78;2.10;;;;;;;11.05;100.00;100321.50;5014463;28;20025;-61
2023/01/11 02:46:26;;;;;;;9.30;3.00;;;;;;;11.09;100.00;100341.50;5021333;28;20133;-62
2023/01/11 02:48:58;;;;;;;13.02;3.50;;;;;;;11.12;100.00;100340.53;5036238;28;20044;-61
2023/01/11 02:51:33;;;;;;;10.88;2.50;;;;;;;11.13;100.00;100343.09;5001880;28;20041;-61
2023/01/11 02:54:01;;;;;;;7.95;3.03;;;;;;;10.85;100.00;100299.56;5035999;28;20030;-62
2023/01/11 02:56:29;;;;;;;5.50;2.00;;;;;;;11.02;100.00;100320.75;5035827;28;20393;-61
2023/01/11 02:58:56;;;;;;;10.20;2.40;;;;;;;10.68;100.00;100282.66;5018332;28;20029;-62
2023/01/11 03:01:22;;;;;;;7.10;2.80;;;;;;;11.06;100.00;100367.13;5001939;28;20054;-59
2023/01/11 03:03:48;;;;;;;8.10;3.50;;;;;;;11.01;100.00;100362.03;5018093;28;20046;-61
2023/01/11 03:06:30;;;;;;;14.70;4.70;;;;;;;10.99;100.00;100355.13;5035658;28;20132;-60
2023/01/11 03:09:08;;;;;;;20.70;5.85;;;;;;;10.97;100.00;100336.78;5017700;28;20473;-61
2023/01/11 03:14:27;;;;;;;24.75;5.63;;;;;;;10.57;100.00;100313.84;5035512;28;20147;-61
2023/01/11 03:17:20;;;;;;;24.15;6.40;;;;;;;10.84;100.00;100346.09;5035559;28;20033;-59
2023/01/11 03:19:51;;;;;;;18.92;6.43;;;;;;;10.98;100.00;100383.22;5035405;28;20033;-62
2023/01/11 03:22:24;;;;;;;20.75;6.40;;;;;;;10.87;100.00;100345.97;5017642;28;20467;-61
2023/01/11 03:25:17;;;;;;;29.42;7.53;;;;;;;10.55;100.00;100299.03;5035307;28;20376;-59
2023/01/11 03:27:55;;;;;;;22.83;7.57;;;;;;;10.88;100.00;100358.22;5035130;28;20029;-60
2023/01/11 03:30:24;;;;;;;24.95;6.30;;;;;;;10.90;100.00;100361.63;5035466;28;20041;-60
2023/01/11 03:33:15;;;;;;;24.13;6.03;;;;;;;10.88;100.00;100350.31;5035280;28;20029;-61
2023/01/11 03:35:53;;;;;;;25.80;6.50;;;;;;;10.78;100.00;100343.69;5025970;28;20034;-60
2023/01/11 03:38:40;;;;;;;19.10;6.18;;;;;;;10.63;100.00;100316.22;5017641;28;20035;-61
2023/01/11 03:41:19;;;;;;;25.80;6.50;;;;;;;10.89;100.00;100388.88;5021537;28;20477;-60
2023/01/11 03:43:47;;;;;;;23.50;5.88;;;;;;;10.83;100.00;100383.84;5017135;28;20389;-61
2023/01/11 03:46:15;;;;;;;23.80;5.95;;;;;;;10.81;100.00;100377.81;5017133;28;20029;-61
2023/01/11 03:48:54;;;;;;;26.13;6.40;;;;;;;10.45;100.00;100318.75;5017336;28;20164;-59
2023/01/11 03:51:32;;;;;;;29.33;7.15;;;;;;;10.46;100.00;100329.22;5035023;28;20029;-60
2023/01/11 03:54:02;;;;;;;27.45;5.82;;;;;;;10.87;100.00;100392.50;5034837;28;20037;-60
2023/01/11 03:57:04;;;;;;;25.75;5.15;;;;;;;10.91;100.00;100402.00;5034713;28;20029;-61
2023/01/11 03:59:30;;;;;;;26.85;6.80;;;;;;;10.88;100.00;100410.00;5021582;28;20068;-60
2023/01/11 04:01:56;;;;;;;25.80;5.00;;;;;;;10.76;100.00;100399.97;5034707;28;20508;-61
2023/01/11 04:04:22;;;;;;;25.95;5.10;;;;;;;10.78;100.00;100422.69;5016834;28;20564;-60
2023/01/11 04:06:47;;;;;;;26.13;5.10;;;;;;;10.43;100.00;100362.69;5034530;28;20034;-61
2023/01/11 04:09:13;;;;;;;23.77;4.63;;;;;;;10.55;100.00;100381.47;5016873;28;20044;-59
2023/01/11 04:11:38;;;;;;;29.55;5.13;;;;;;;10.87;100.00;100439.88;5034522;28;20063;-62
2023/01/11 04:14:03;;;;;;;28.88;5.57;;;;;;;10.85;100.00;100449.63;5034471;28;20033;-59
2023/01/11 04:16:29;;;;;;;25.90;5.40;;;;;;;10.85;100.00;100444.38;5034540;28;20072;-62
2023/01/11 04:18:54;;;;;;;22.98;4.65;;;;;;;10.44;100.00;100381.06;5034438;28;20038;-59
2023/01/11 04:21:20;;;;;;;26.05;5.20;;;;;;;10.81;100.00;100446.25;5034028;28;20112;-59
2023/01/11 04:23:45;;;;;;;28.30;6.05;;;;;;;10.74;100.00;100445.63;5033973;28;20076;-60
2023/01/11 04:26:10;;;;;;;30.15;5.60;;;;;;;10.67;100.00;100417.84;5034216;28;20121;-60
2023/01/11 04:28:36;;;;;;;20.10;4.50;;;;;;;10.58;100.00;100423.47;5034218;28;20061;-59
2023/01/11 04:31:01;;;;;;;26.65;4.95;;;;;;;10.32;100.00;100384.16;5033739;28;20076;-62
2023/01/11 04:33:27;;;;;;;28.85;4.68;;;;;;;10.68;100.00;100456.41;5033990;28;20121;-60
2023/01/11 04:35:52;;;;;;;27.73;4.60;;;;;;;10.67;100.00;100445.94;5033852;28;20025;-61
2023/01/11 04:38:17;;;;;;;27.27;4.43;;;;;;;10.67;100.00;100457.34;5033924;28;20041;-63
2023/01/11 04:40:43;;;;;;;26.30;4.70;;;;;;;10.64;100.00;100475.00;5033451;28;20030;-63
2023/01/11 04:43:08;;;;;;;25.75;4.35;;;;;;;10.58;100.00;100472.63;5034151;28;20067;-62
2023/01/11 04:45:34;;;;;;;23.63;5.05;;;;;;;9.88;100.00;100361.25;5034161;28;20477;-62
2023/01/11 04:47:59;;;;;;;20.60;4.35;;;;;;;10.56;100.00;100469.19;5033210;28;20036;-61
2023/01/11 04:50:25;;;;;;;17.58;4.50;;;;;;;10.33;100.00;100435.88;5015889;28;20037;-61
2023/01/11 04:52:51;;;;;;;20.05;4.13;;;;;;;10.55;100.00;100491.16;5033718;28;20037;-63
2023/01/11 04:55:17;;;;;;;20.67;5.03;;;;;;;10.29;100.00;100430.75;5033660;28;20029;-61
2023/01/11 04:57:43;;;;;;;20.38;3.78;;;;;;;10.40;100.00;100447.00;5033564;28;20038;-59
2023/01/11 05:00:09;;;;;;;19.40;3.72;;;;;;;10.48;100.00;100485.25;5033151;28;20408;-61
2023/01/11 05:02:35;;;;;;;24.00;5.00;;;;;;;10.39;100.00;100482.97;5033234;28;20060;-60
2023/01/11 05:05:01;;;;;;;15.93;4.35;;;;;;;10.11;100.00;100422.59;5014960;28;20047;-60
2023/01/11 05:07:26;;;;;;;21.10;4.10;;;;;;;10.42;100.00;100485.47;5033077;28;20029;-60
2023/01/11 05:09:52;;;;;;;21.30;4.43;;;;;;;10.50;100.00;100491.34;5015721;28;20051;-60
2023/01/11 05:12:17;;;;;;;21.63;3.50;;;;;;;10.41;100.00;100494.31;5032520;28;20499;-63
2023/01/11 05:14:42;;;;;;;21.70;4.40;;;;;;;10.40;100.00;100500.47;5033300;28;20037;-60
2023/01/11 05:17:12;;;;;;;16.08;3.65;;;;;;;10.29;100.00;100510.53;5033198;28;20029;-62
2023/01/11 05:19:37;;;;;;;20.10;3.50;;;;;;;10.30;100.00;100522.78;5015678;28;20025;-61
2023/01/11 05:22:02;;;;;;;17.98;3.30;;;;;;;10.26;100.00;100509.78;5015701;28;20621;-61
2023/01/11 05:24:28;;;;;;;22.83;4.13;;;;;;;10.24;100.00;100516.88;5032762;28;20046;-61
2023/01/11 05:26:53;;;;;;;13.18;3.45;;;;;;;10.19;100.00;100527.56;5033003;28;20099;-61
2023/01/11 05:29:20;;;;;;;20.35;3.53;;;;;;;10.10;100.00;100514.69;5033107;28;20033;-60
2023/01/11 05:31:45;;;;;;;16.52;3.95;;;;;;;9.75;100.00;100459.88;5032826;28;20041;-60
2023/01/11 05:34:12;;;;;;;11.68;3.17;;;;;;;10.14;100.00;100538.25;5032426;28;20087;-60
2023/01/11 05:36:37;;;;;;;13.45;3.15;;;;;;;10.13;100.00;100564.59;5031922;28;20120;-61
2023/01/11 05:39:04;;;;;;;19.52;3.33;;;;;;;10.09;100.00;100539.28;5015254;28;20475;-60
2023/01/11 05:41:29;;;;;;;18.90;3.85;;;;;;;10.01;100.00;100546.59;5032354;28;20044;-61
2023/01/11 05:46:40;;;;;;;16.73;4.00;;;;;;;9.92;100.00;100544.28;5032969;28;20459;-60
2023/01/11 05:49:06;;;;;;;18.73;3.75;;;;;;;9.00;100.00;100388.88;5032650;28;20038;-60
2023/01/11 05:51:32;;;;;;;16.10;3.15;;;;;;;9.84;100.00;100551.53;5032486;28;20025;-63
2023/01/11 05:53:58;;;;;;;23.45;3.50;;;;;;;9.47;100.00;100486.22;5015093;28;20036;-59
2023/01/11 05:56:24;;;;;;;13.10;3.00;;;;;;;9.83;100.00;100548.09;5014901;28;20064;-60
2023/01/11 05:58:50;;;;;;;20.13;4.03;;;;;;;9.49;100.00;100495.78;5014741;28;20041;-62
2023/01/11 06:01:17;;;;;;;20.85;3.35;;;;;;;9.86;100.00;100568.16;5031886;28;20469;-60
2023/01/11 06:03:43;;;;;;;15.05;2.88;;;;;;;9.78;100.00;100591.22;5011185;28;20620;-60
2023/01/11 06:06:08;;;;;;;16.27;4.30;;;;;;;9.38;100.00;100510.19;5012404;28;20515;-61
2023/01/11 06:08:34;;;;;;;16.35;3.28;;;;;;;9.72;100.00;100578.28;5012475;28;20040;-61
2023/01/11 06:10:59;;;;;;;19.50;4.10;;;;;;;9.68;100.00;100595.91;5011423;28;20037;-62
2023/01/11 06:13:25;;;;;;;16.67;3.45;;;;;;;9.29;100.00;100529.72;5012531;28;20041;-62
2023/01/11 06:15:56;;;;;;;13.18;4.38;;;;;;;9.67;100.00;100596.78;5011474;28;20029;-60
2023/01/11 06:18:22;;;;;;;15.40;3.47;;;;;;;9.63;100.00;100591.72;5010101;28;20041;-61
2023/01/11 06:20:49;;;;;;;14.18;3.30;;;;;;;9.60;100.00;100606.63;5012561;28;20030;-60
2023/01/11 06:23:14;;;;;;;21.42;3.80;;;;;;;9.63;100.00;100599.59;5012325;28;20046;-61
2023/01/11 06:25:39;;;;;;;15.60;3.50;;;;;;;9.11;100.00;100526.84;5011336;28;20040;-60
2023/01/11 06:28:05;;;;;;;17.08;3.80;;;;;;;9.56;100.00;100612.91;5011083;28;20324;-61
2023/01/11 06:30:30;;;;;;;17.50;4.22;;;;;;;9.41;100.00;100581.88;4994564;28;20064;-60
2023/01/11 06:33:04;;;;;;;18.70;4.03;;;;;;;9.50;100.00;100618.38;5011032;28;20132;-61
2023/01/11 06:35:30;;;;;;;17.17;4.05;;;;;;;9.40;100.00;100626.56;5012075;28;20037;-60
2023/01/11 06:37:56;;;;;;;16.23;3.75;;;;;;;8.97;100.00;100571.88;5012245;28;20030;-61
2023/01/11 06:40:21;;;;;;;16.38;4.55;;;;;;;9.24;100.00;100623.56;5010922;28;20117;-61
2023/01/11 06:42:46;;;;;;;21.35;4.20;;;;;;;9.20;100.00;100615.81;5011830;28;20029;-60
2023/01/11 06:45:12;;;;;;;22.38;3.92;;;;;;;9.10;100.00;100627.50;5011845;28;20292;-60
2023/01/11 06:47:37;;;;;;;19.50;4.30;;;;;;;9.04;100.00;100632.03;5011706;28;20545;-62
2023/01/11 06:50:03;;;;;;;21.05;5.00;;;;;;;9.01;100.00;100639.16;5011612;28;20457;-60
2023/01/11 06:52:28;;;;;;;18.00;4.05;;;;;;;8.54;100.00;100569.66;5011972;28;20045;-61
2023/01/11 06:54:54;;;;;;;17.45;4.75;;;;;;;8.91;100.00;100642.91;5010441;28;20034;-61
2023/01/11 06:57:19;;;;;;;21.55;3.88;;;;;;;8.72;100.00;100628.63;5011811;28;20064;-61
2023/01/11 06:59:44;;;;;;;17.33;3.70;;;;;;;8.70;100.00;100643.56;5010651;28;20503;-60
2023/01/11 07:02:09;;;;;;;21.23;4.22;;;;;;;8.66;100.00;100634.03;5015330;28;20449;-61
2023/01/11 07:04:35;;;;;;;24.90;5.22;;;;;;;8.71;100.00;100653.13;5031584;28;20033;-61
2023/01/11 07:07:00;;;;;;;19.70;3.70;;;;;;;8.66;100.00;100649.78;5031847;28;20037;-69
2023/01/11 07:09:26;;;;;;;21.83;4.03;;;;;;;8.72;100.00;100650.47;5013384;28;20447;-68
2023/01/11 07:11:51;;;;;;;27.17;4.55;;;;;;;8.53;100.00;100630.00;5031107;28;20044;-67
2023/01/11 07:14:18;;;;;;;23.63;4.30;;;;;;;8.71;100.00;100658.38;5031435;28;20045;-66
2023/01/11 07:16:45;;;;;;;20.17;4.75;;;;;;;8.27;100.00;100591.34;5029941;28;20056;-70
2023/01/11 07:19:10;;;;;;;23.95;4.32;;;;;;;8.58;100.00;100664.88;5030948;28;20032;-68
2023/01/11 07:21:36;;;;;;;24.25;5.65;;;;;;;8.58;100.00;100683.25;5031441;28;20037;-68
2023/01/11 07:24:01;;;;;;;22.88;4.60;;;;;;;8.46;100.00;100664.28;5013864;28;20037;-66
2023/01/11 07:26:27;;;;;;;20.08;5.35;;;;;;;8.58;100.00;100685.88;4997353;28;20037;-67
2023/01/11 07:28:52;;;;;;;26.13;4.88;;;;;;;8.49;100.00;100690.41;5032841;28;20052;-67
2023/01/11 07:31:17;;;;;;;17.25;4.20;;;;;;;8.38;100.00;100692.47;5034777;28;20091;-66
2023/01/11 07:33:43;;;;;;;21.83;4.75;;;;;;;8.38;100.00;100694.22;5035392;28;20038;-68
2023/01/11 07:36:08;;;;;;;27.73;4.40;;;;;;;8.28;100.00;100675.25;5017285;28;20033;-65
2023/01/11 07:38:34;;;;;;;23.50;4.45;;;;;;;8.33;100.00;100694.34;5035078;28;20054;-66
2023/01/11 07:40:59;;;;;;;24.20;4.50;;;;;;;8.19;100.00;100703.44;5017268;28;20459;-67
2023/01/11 07:43:24;;;;;;;24.15;5.32;;;;;;;8.21;100.00;100701.63;5034850;28;20043;-65
2023/01/11 07:45:51;;;;;;;24.95;4.68;;;;;;;7.91;100.00;100672.63;5034682;28;20117;-68
2023/01/11 07:48:23;;;;;;;17.65;4.45;;;;;;;8.01;100.00;100699.50;5017368;28;20388;-68
2023/01/11 07:50:49;;;;;;;23.65;5.25;;;;;;;8.11;100.00;100714.13;5035108;28;20111;-65
2023/01/11 07:53:15;;;;;;;24.60;4.38;;;;;;;8.11;100.00;100724.63;5017141;28;20072;-67
2023/01/11 07:55:41;;;;;;;23.98;5.40;;;;;;;7.93;100.00;100715.44;5034616;28;20064;-68
2023/01/11 07:58:11;;;;;;;22.50;4.82;;;;;;;7.62;100.00;100676.84;5034490;28;20033;-68
2023/01/11 08:00:36;;;;;;;23.70;4.22;;;;;;;7.92;100.00;100733.78;5034243;28;20123;-68
2023/01/11 08:03:01;;;;;;;23.30;5.65;;;;;;;7.88;100.00;100730.38;5034417;28;20437;-67
2023/01/11 08:05:27;;;;;;;26.63;4.80;;;;;;;8.00;100.00;100751.97;5033989;28;20554;-68
2023/01/11 08:07:52;;;;;;;22.63;4.80;;;;;;;8.03;100.00;100747.50;5016435;28;20405;-72
2023/01/11 08:10:18;;;;;;;20.20;5.63;;;;;;;7.80;100.00;100703.50;5034410;28;20113;-72
2023/01/11 08:15:29;;;;;;;26.80;4.88;;;;;;;7.79;100.00;100724.50;5019158;28;20039;-66
2023/01/11 08:17:55;;;;;;;24.08;4.38;;;;;;;7.52;100.00;100685.81;5016335;28;20073;-66
2023/01/11 08:20:20;;;;;;;29.15;4.60;;;;;;;7.86;100.00;100747.03;5015912;28;20511;-67
2023/01/11 08:22:47;;;;;;;23.52;4.57;;;;;;;7.90;100.00;100765.28;5033837;28;20036;-66
2023/01/11 08:25:12;;;;;;;25.98;4.88;;;;;;;7.36;100.00;100674.81;5033866;28;20057;-66
2023/01/11 08:27:37;;;;;;;22.55;3.85;;;;;;;7.83;100.00;100750.59;5033650;28;20091;-66
2023/01/11 08:30:03;;;;;;;28.60;5.00;;;;;;;7.94;100.00;100772.16;5033888;28;20128;-66
2023/01/11 08:32:29;;;;;;;19.25;4.38;;;;;;;7.89;100.00;100771.41;5033193;28;20715;-66
2023/01/11 08:34:54;;;;;;;17.77;4.50;;;;;;;7.43;100.00;100686.88;5014936;28;20442;-68
2023/01/11 08:37:19;;;;;;;25.55;4.80;;;;;;;7.93;100.00;100770.47;5033103;28;20091;-70
2023/01/11 08:39:44;;;;;;;26.63;5.30;;;;;;;7.46;100.00;100691.19;5014237;28;20038;-70
2023/01/11 08:42:10;;;;;;;27.73;4.35;;;;;;;7.96;100.00;100785.25;5032706;28;20041;-67
2023/01/11 08:44:35;;;;;;;21.80;4.50;;;;;;;7.86;100.00;100761.00;5033104;28;20125;-68
2023/01/11 08:47:01;;;;;;;23.77;5.18;;;;;;;7.97;100.00;100781.72;5032499;28;20067;-66
2023/01/11 08:49:29;;;;;;;22.92;4.18;;;;;;;7.92;100.00;100755.63;5032267;28;20049;-71
2023/01/11 08:51:54;;;;;;;26.60;4.90;;;;;;;8.05;100.00;100771.94;5014919;28;20389;-68
2023/01/11 08:54:20;;;;;;;23.88;3.67;;;;;;;7.57;100.00;100687.44;5032568;28;20037;-67
2023/01/11 08:56:45;;;;;;;23.38;4.20;;;;;;;8.08;100.00;100774.50;5014487;28;20036;-69
2023/01/11 08:59:10;;;;;;;24.05;5.82;;;;;;;8.20;100.00;100795.16;5014637;28;20113;-67
2023/01/11 09:01:36;;;;;;;25.85;4.45;;;;;;;7.59;100.00;100685.63;5032607;28;20037;-64
2023/01/11 09:04:01;;;;;;;33.70;5.25;;;;;;;7.72;100.00;100701.94;5031621;28;20134;-72
2023/01/11 09:06:27;;;;;;;30.17;5.85;;;;;;;8.23;100.00;100797.69;5032186;28;20046;-65
2023/01/11 09:08:52;;;;;;;24.35;5.25;;;;;;;8.26;100.00;100799.41;5032380;28;20061;-69
2023/01/11 09:14:02;;;;;;;28.02;5.28;;;;;;;8.22;100.00;100785.50;5031030;28;20515;-67
2023/01/11 09:16:27;;;;;;;18.40;4.95;;;;;;;8.33;100.00;100809.75;5031654;28;20042;-67
2023/01/11 09:18:54;;;;;;;31.70;5.60;;;;;;;8.36;100.00;100814.94;5032658;28;20313;-66
2023/01/11 09:21:19;;;;;;;19.58;4.68;;;;;;;8.03;100.00;100742.25;5015101;28;20087;-67
2023/01/11 09:23:45;;;;;;;22.85;4.93;;;;;;;8.28;100.00;100793.28;4997463;28;20041;-65
2023/01/11 09:26:11;;;;;;;23.13;4.88;;;;;;;8.34;100.00;100801.00;5014331;28;20045;-64
2023/01/11 09:28:36;;;;;;;22.65;5.15;;;;;;;8.05;100.00;100745.72;5032187;28;20476;-68
2023/01/11 09:31:02;;;;;;;15.02;3.70;;;;;;;8.29;100.00;100779.25;5031495;28;20117;-64
2023/01/11 09:33:27;;;;;;;13.80;3.58;;;;;;;8.06;100.00;100741.31;5013521;28;20330;-67
2023/01/11 09:35:55;;;;;;;21.27;3.88;;;;;;;8.00;100.00;100734.47;5031770;28;20481;-66
2023/01/11 09:38:24;;;;;;;17.13;3.90;;;;;;;8.51;100.00;100818.06;5031644;28;20065;-63
2023/01/11 09:41:00;;;;;;;21.75;4.05;;;;;;;8.43;100.00;100807.78;5031736;28;20038;-63
2023/01/11 09:43:29;;;;;;;19.45;4.00;;;;;;;8.47;100.00;100817.28;5014220;28;20066;-65
2023/01/11 09:45:58;;;;;;;19.20;3.63;;;;;;;8.26;100.00;100749.59;5014043;28;20281;-63
2023/01/11 09:48:36;;;;;;;15.27;3.80;;;;;;;8.69;100.00;100828.13;5013868;28;20034;-61
2023/01/11 09:51:03;;;;;;;19.63;4.20;;;;;;;8.31;100.00;100764.34;5013901;28;20030;-62
2023/01/11 09:53:34;;;;;;;18.83;3.55;;;;;;;8.28;100.00;100756.56;5031732;28;20045;-63
2023/01/11 09:56:03;;;;;;;21.80;5.22;;;;;;;8.48;100.00;100787.53;5013876;28;20380;-61
2023/01/11 09:58:50;;;;;;;20.00;3.30;;;;;;;8.93;100.00;100853.78;5013606;28;20128;-62
2023/01/11 10:01:18;;;;;;;22.40;5.13;;;;;;;8.97;100.00;100864.13;5013360;28;20049;-61
2023/01/11 10:04:22;;;;;;;14.73;3.97;;;;;;;8.97;100.00;100873.78;5030943;28;20045;-63
2023/01/11 10:07:24;;;;;;;16.73;3.90;;;;;;;9.04;100.00;100880.59;5031031;28;20033;-62
2023/01/11 10:10:17;;;;;;;16.83;3.63;;;;;;;9.16;100.00;100889.94;5030973;28;20119;-65
2023/01/11 10:13:03;;;;;;;22.23;4.75;;;;;;;9.32;100.00;100875.47;5031552;28;20034;-66
2023/01/11 10:15:34;;;;;;;22.95;3.72;;;;;;;9.36;100.00;100878.00;5031034;28;20065;-62
2023/01/11 10:18:28;;;;;;;19.20;4.00;;;;;;;9.41;100.00;100875.25;5031173;28;20025;-65
2023/01/11 10:21:05;;;;;;;16.85;4.63;;;;;;;9.60;100.00;100903.59;5030886;28;20029;-62
2023/01/11 10:23:36;;;;;;;16.40;4.75;;;;;;;9.67;100.00;100913.94;5012641;28;20073;-61
2023/01/11 10:26:08;;;;;;;14.45;3.70;;;;;;;9.24;100.00;100824.94;5030059;28;20608;-65
2023/01/11 10:28:42;;;;;;;18.20;3.88;;;;;;;9.51;100.00;100866.22;5014471;28;20042;-69
2023/01/11 10:31:44;;;;;;;20.90;3.97;;;;;;;9.65;100.00;100889.47;5030552;28;20048;-65
2023/01/11 10:34:41;;;;;;;17.75;3.97;;;;;;;9.60;100.00;100884.38;5016843;28;20376;-63
2023/01/11 10:37:33;;;;;;;18.08;4.47;;;;;;;9.67;100.00;100908.69;5030938;28;20117;-64
2023/01/11 10:41:01;;;;;;;18.05;4.00;;;;;;;9.61;100.00;100881.69;5012696;28;20029;-63
2023/01/11 10:43:15;;;;;;;21.15;4.20;;;;;;;9.50;100.00;100844.34;5013540;28;20041;-64
2023/01/11 10:45:49;;;;;;;17.42;4.78;;;;;;;9.86;100.00;100909.91;5013280;28;20038;-63
2023/01/11 10:48:37;;;;;;;19.80;3.70;;;;;;;9.52;100.00;100828.50;5013328;28;20041;-66
2023/01/11 10:51:31;;;;;;;20.23;4.22;;;;;;;9.72;100.00;100849.00;5013063;28;20036;-63
2023/01/11 10:54:15;;;;;;;24.70;4.35;;;;;;;10.12;100.00;100896.88;5012587;28;20029;-66
2023/01/11 10:57:10;;;;;;;16.85;4.70;;;;;;;9.74;100.00;100821.75;5013317;28;20046;-64
2023/01/11 10:59:49;;;;;;;18.80;4.68;;;;;;;10.31;100.00;100907.72;5030264;28;20485;-63
2023/01/11 11:02:31;;;;;;;21.17;4.03;;;;;;;10.31;100.00;100903.34;5030026;28;20088;-64
2023/01/11 11:05:15;;;;;;;19.65;3.92;;;;;;;10.31;100.00;100905.09;5034061;28;20060;-62
2023/01/11 11:08:10;;;;;;;19.08;4.47;;;;;;;10.23;100.00;100905.34;5033649;28;20040;-63
2023/01/11 11:10:53;;;;;;;21.80;5.00;;;;;;;10.14;100.00;100913.50;5034453;28;20476;-64
2023/01/11 11:13:45;;;;;;;16.85;4.00;;;;;;;10.08;100.00;100905.75;5033905;28;20033;-62
2023/01/11 11:16:10;;;;;;;;;;;;;;;10.13;100.00;100909.13;5023241;28;20077;-67
2023/01/11 11:18:36;;;;;;;20.27;4.23;;;;;;;10.17;100.00;100902.88;5034605;28;19956;-68
2023/01/11 11:21:05;;;;;;;19.25;4.43;;;;;;;9.76;100.00;100835.69;5016812;28;20374;-72
2023/01/11 11:23:30;;;;;;;17.10;3.95;;;;;;;10.11;100.00;100900.41;5029962;28;20037;-70
2023/01/11 11:26:00;;;;;;;24.98;4.20;;;;;;;10.27;100.00;100893.81;5013085;28;20521;-66
2023/01/11 11:28:27;;;;;;;19.05;4.18;;;;;;;10.39;100.00;100913.66;5032491;28;20061;-69
2023/01/11 11:30:55;;;;;;;17.58;3.63;;;;;;;10.03;100.00;100849.81;5032995;28;20048;-69
2023/01/11 11:33:35;;;;;;;20.60;3.92;;;;;;;10.08;100.00;100854.00;5015175;28;20522;-66
2023/01/11 11:36:03;;;;;;;17.45;4.00;;;;;;;10.36;100.00;100911.94;4998939;28;20071;-65
2023/01/11 11:38:30;;;;;;;21.63;4.93;;;;;;;10.44;100.00;100917.00;5033682;28;20037;-64
2023/01/11 11:40:58;;;;;;;21.83;4.22;;;;;;;10.32;100.00;100904.19;5016426;28;20071;-66
2023/01/11 11:43:24;;;;;;;17.17;3.92;;;;;;;10.35;100.00;100904.09;5033898;28;20068;-67
2023/01/11 11:46:01;;;;;;;15.95;3.45;;;;;;;10.46;100.00;100925.69;5000305;28;20026;-66
2023/01/11 11:48:30;;;;;;;14.55;3.50;;;;;;;10.39;100.00;100918.91;5016559;28;20093;-65